Time;durP1;ratioP1;P1;durP2;ratioP2;P2;SDS_P1;SDS_P2;PMS_P1;PMS_P2;Temp;Humidity;BMP_temperature;BMP_pressure;BME280_temperature;BME280_humidity;BME280_pressure;Samples;Min_cycle;Max_cycle;Signal;HPM_P1;HPM_P2
2022/03/28 00:02:06;;;;;;;12.02;4.78;;;6.20;99.90;;;;;;5043032;28;20048;-51
2022/03/28 00:04:32;;;;;;;40.40;6.85;;;6.20;99.90;;;;;;5044232;28;20045;-50
2022/03/28 00:06:58;;;;;;;51.95;6.68;;;6.20;99.90;;;;;;5053980;28;20120;-52
2022/03/28 00:09:24;;;;;;;19.25;6.22;;;6.30;99.90;;;;;;5054210;28;20037;-52
2022/03/28 00:11:49;;;;;;;14.55;4.95;;;6.20;99.90;;;;;;5036372;28;20048;-50
2022/03/28 00:14:15;;;;;;;37.38;7.95;;;6.20;99.90;;;;;;5052691;28;20091;-50
2022/03/28 00:16:40;;;;;;;41.72;4.68;;;6.20;99.90;;;;;;5053680;28;20041;-52
2022/03/28 00:19:06;;;;;;;10.60;4.07;;;6.30;99.90;;;;;;5053764;28;20037;-52
2022/03/28 00:21:32;;;;;;;14.68;4.55;;;6.20;99.90;;;;;;5054253;28;20036;-50
2022/03/28 00:23:58;;;;;;;21.98;4.47;;;6.20;99.90;;;;;;5054090;28;20477;-52
2022/03/28 00:26:23;;;;;;;14.45;4.80;;;6.10;99.90;;;;;;5053828;28;20539;-50
2022/03/28 00:28:49;;;;;;;21.60;5.20;;;6.10;99.90;;;;;;5052351;28;20090;-50
2022/03/28 00:31:15;;;;;;;10.57;4.10;;;6.00;99.90;;;;;;5053483;28;20041;-54
2022/03/28 00:33:41;;;;;;;25.08;4.32;;;6.00;99.90;;;;;;5053783;28;20044;-53
2022/03/28 00:36:06;;;;;;;25.25;4.20;;;6.00;99.90;;;;;;5053671;28;20033;-52
2022/03/28 00:38:32;;;;;;;11.85;3.78;;;6.10;99.90;;;;;;5053627;28;20035;-51
2022/03/28 00:40:58;;;;;;;13.88;3.50;;;5.90;99.90;;;;;;5053249;28;20040;-50
2022/03/28 00:43:23;;;;;;;15.07;4.00;;;5.90;99.90;;;;;;5053687;28;20087;-50
2022/03/28 00:45:49;;;;;;;14.57;3.63;;;6.00;99.90;;;;;;5053599;28;20051;-50
2022/03/28 00:48:15;;;;;;;35.33;3.85;;;6.00;99.90;;;;;;5053126;28;20045;-50
2022/03/28 00:50:41;;;;;;;17.70;3.50;;;6.00;99.90;;;;;;5053618;28;20091;-50
2022/03/28 00:53:10;;;;;;;46.15;4.05;;;6.00;99.90;;;;;;5053272;28;20140;-50
2022/03/28 00:55:36;;;;;;;16.58;3.72;;;5.90;99.90;;;;;;5053062;28;20033;-50
2022/03/28 00:58:02;;;;;;;20.40;4.13;;;6.00;99.90;;;;;;5053049;28;20048;-50
2022/03/28 01:00:27;;;;;;;31.30;3.85;;;5.90;99.90;;;;;;5053164;28;20123;-51
2022/03/28 01:02:53;;;;;;;13.07;3.65;;;5.90;99.90;;;;;;5053229;28;20068;-50
2022/03/28 01:05:19;;;;;;;20.73;4.25;;;5.90;99.90;;;;;;5048238;28;20099;-50
2022/03/28 01:07:46;;;;;;;16.60;3.83;;;5.90;99.90;;;;;;5056303;28;20076;-51
2022/03/28 01:10:11;;;;;;;21.95;5.05;;;5.90;99.90;;;;;;5064280;28;20037;-50
2022/03/28 01:12:42;;;;;;;15.77;5.15;;;6.00;99.90;;;;;;5055650;28;20036;-50
2022/03/28 01:15:10;;;;;;;18.13;5.18;;;6.00;99.90;;;;;;5052878;28;20098;-51
2022/03/28 01:18:39;;;;;;;19.50;5.28;;;6.00;99.90;;;;;;5034717;28;20033;-50
2022/03/28 01:20:38;;;;;;;19.75;6.15;;;6.00;99.90;;;;;;5043646;28;20185;-50
2022/03/28 01:23:04;;;;;;;19.73;5.88;;;6.00;99.90;;;;;;5052625;28;20060;-51
2022/03/28 01:25:30;;;;;;;39.08;7.93;;;6.10;99.90;;;;;;5052348;28;20489;-52
2022/03/28 01:27:58;;;;;;;49.17;6.80;;;6.10;99.90;;;;;;5052535;28;20045;-51
2022/03/28 01:30:26;;;;;;;49.60;8.18;;;6.00;99.90;;;;;;5033178;28;20127;-52
2022/03/28 01:32:53;;;;;;;20.98;6.70;;;6.10;99.90;;;;;;5052581;28;20037;-50
2022/03/28 01:35:32;;;;;;;29.55;7.05;;;6.10;99.90;;;;;;5034754;28;20163;-50
2022/03/28 01:37:59;;;;;;;34.95;6.40;;;6.00;99.90;;;;;;5052079;28;20120;-50
2022/03/28 01:40:25;;;;;;;36.35;5.95;;;6.00;99.90;;;;;;5034625;28;20099;-52
2022/03/28 01:42:50;;;;;;;23.80;6.88;;;6.10;99.90;;;;;;5052509;28;20037;-52
2022/03/28 01:45:18;;;;;;;24.63;6.80;;;6.10;99.90;;;;;;5037412;28;20041;-51
2022/03/28 01:47:45;;;;;;;57.92;8.05;;;6.10;99.90;;;;;;5032355;28;20437;-51
2022/03/28 01:50:10;;;;;;;34.22;8.45;;;6.10;99.90;;;;;;5032426;28;20046;-50
2022/03/28 01:52:36;;;;;;;23.02;7.60;;;6.10;99.90;;;;;;5047252;28;20047;-50
2022/03/28 01:55:02;;;;;;;28.77;7.28;;;6.10;99.90;;;;;;5052204;28;20115;-52
2022/03/28 01:57:28;;;;;;;21.45;7.70;;;6.10;99.90;;;;;;5051768;28;20033;-51
2022/03/28 01:59:54;;;;;;;25.70;6.47;;;6.10;99.90;;;;;;5052348;28;20036;-52
2022/03/28 02:02:19;;;;;;;17.65;5.93;;;6.10;99.90;;;;;;5034521;28;20048;-53
2022/03/28 02:04:44;;;;;;;22.88;6.78;;;6.10;99.90;;;;;;5044348;28;20382;-50
2022/03/28 02:07:10;;;;;;;17.60;5.53;;;6.10;99.90;;;;;;5049701;28;20435;-51
2022/03/28 02:09:35;;;;;;;33.63;7.20;;;6.20;99.90;;;;;;5052253;28;20033;-53
2022/03/28 02:12:01;;;;;;;29.75;6.60;;;6.20;99.90;;;;;;5051869;28;20040;-50
2022/03/28 02:14:27;;;;;;;48.65;6.95;;;6.10;99.90;;;;;;5052194;28;20094;-52
2022/03/28 02:16:52;;;;;;;24.52;6.40;;;6.10;99.90;;;;;;5051711;28;20040;-50
2022/03/28 02:19:18;;;;;;;42.15;6.57;;;6.10;99.90;;;;;;5051723;28;20455;-51
2022/03/28 02:21:43;;;;;;;23.98;6.93;;;6.00;99.90;;;;;;5051604;28;20443;-53
2022/03/28 02:24:09;;;;;;;33.33;6.50;;;5.90;99.90;;;;;;5050830;28;20040;-53
2022/03/28 02:26:34;;;;;;;27.90;6.85;;;5.90;99.90;;;;;;5051239;28;20087;-53
2022/03/28 02:29:00;;;;;;;22.40;6.80;;;5.90;99.90;;;;;;5051697;28;20041;-53
2022/03/28 02:31:26;;;;;;;19.13;6.35;;;5.90;99.90;;;;;;5051744;28;20048;-53
2022/03/28 02:33:51;;;;;;;27.10;7.25;;;5.90;99.90;;;;;;5052136;28;20040;-53
2022/03/28 02:36:17;;;;;;;43.80;7.25;;;5.90;99.90;;;;;;5051069;28;20051;-53
2022/03/28 02:38:42;;;;;;;36.33;7.35;;;6.00;99.90;;;;;;5033585;28;20047;-53
2022/03/28 02:41:08;;;;;;;20.13;7.13;;;5.90;99.90;;;;;;5051817;28;20128;-54
2022/03/28 02:43:34;;;;;;;29.27;7.97;;;5.90;99.90;;;;;;5051377;28;20043;-53
2022/03/28 02:45:59;;;;;;;24.73;7.25;;;5.90;99.90;;;;;;5051527;28;20087;-52
2022/03/28 02:48:25;;;;;;;84.65;9.82;;;5.90;99.90;;;;;;5033490;28;20037;-55
2022/03/28 02:50:51;;;;;;;41.55;9.02;;;5.90;99.90;;;;;;5051403;28;20037;-54
2022/03/28 02:53:16;;;;;;;78.57;9.25;;;6.00;99.90;;;;;;5051131;28;20076;-54
2022/03/28 02:55:42;;;;;;;67.40;10.27;;;6.00;99.90;;;;;;5051406;28;20090;-54
2022/03/28 02:58:08;;;;;;;38.97;9.20;;;6.00;99.90;;;;;;5033696;28;20034;-55
2022/03/28 03:00:34;;;;;;;85.43;9.38;;;5.90;99.90;;;;;;5033745;28;20053;-55
2022/03/28 03:03:00;;;;;;;71.18;9.27;;;5.90;99.90;;;;;;5051496;28;20124;-54
2022/03/28 03:05:26;;;;;;;25.25;9.00;;;5.90;99.90;;;;;;5033269;28;20120;-53
2022/03/28 03:07:52;;;;;;;39.22;9.80;;;5.90;99.90;;;;;;5051624;28;20131;-54
2022/03/28 03:10:17;;;;;;;56.30;8.70;;;5.90;99.90;;;;;;5051248;28;20048;-53
2022/03/28 03:12:43;;;;;;;44.35;10.15;;;5.90;99.90;;;;;;5051477;28;20047;-53
2022/03/28 03:15:09;;;;;;;33.42;8.55;;;5.90;99.90;;;;;;5051148;28;20037;-53
2022/03/28 03:17:36;;;;;;;34.97;8.68;;;5.90;99.90;;;;;;5050940;28;20065;-55
2022/03/28 03:20:03;;;;;;;44.35;9.02;;;5.90;99.90;;;;;;5050903;28;20400;-53
2022/03/28 03:22:28;;;;;;;40.58;8.20;;;5.90;99.90;;;;;;5033305;28;20041;-53
2022/03/28 03:24:54;;;;;;;56.15;7.55;;;5.90;99.90;;;;;;5051753;28;20037;-52
2022/03/28 03:27:20;;;;;;;27.70;7.95;;;6.00;99.90;;;;;;5051001;28;20037;-53
2022/03/28 03:29:45;;;;;;;38.17;8.43;;;6.00;99.90;;;;;;5033369;28;20511;-50
2022/03/28 03:32:11;;;;;;;48.20;9.30;;;6.00;99.90;;;;;;5051023;28;20124;-52
2022/03/28 03:34:36;;;;;;;40.67;10.77;;;5.90;99.90;;;;;;5050700;28;20036;-53
2022/03/28 03:37:02;;;;;;;44.17;9.27;;;5.90;99.90;;;;;;5053278;28;20059;-54
2022/03/28 03:39:28;;;;;;;29.40;10.25;;;5.90;99.90;;;;;;5054998;28;20041;-54
2022/03/28 03:41:55;;;;;;;43.40;9.85;;;5.90;99.90;;;;;;5054919;28;20041;-54
2022/03/28 03:44:21;;;;;;;56.22;8.90;;;5.90;99.90;;;;;;5037037;28;20570;-53
2022/03/28 03:46:47;;;;;;;45.83;9.07;;;6.00;99.90;;;;;;5054546;28;20037;-54
2022/03/28 03:49:15;;;;;;;27.92;6.05;;;5.90;99.90;;;;;;5054873;28;20069;-53
2022/03/28 03:51:41;;;;;;;42.30;8.57;;;5.90;99.90;;;;;;5036417;28;20116;-53
2022/03/28 03:54:07;;;;;;;58.50;9.55;;;5.90;99.90;;;;;;5054581;28;20462;-53
2022/03/28 03:56:32;;;;;;;48.38;9.07;;;5.90;99.90;;;;;;5054441;28;20040;-53
2022/03/28 03:58:58;;;;;;;57.83;10.48;;;5.90;99.90;;;;;;5054507;28;20033;-51
2022/03/28 04:01:28;;;;;;;29.88;8.98;;;5.80;99.90;;;;;;5054491;28;20127;-53
2022/03/28 04:03:53;;;;;;;43.15;10.77;;;5.80;99.90;;;;;;5054079;28;20079;-53
2022/03/28 04:06:19;;;;;;;32.97;10.27;;;5.80;99.90;;;;;;5054042;28;20065;-54
2022/03/28 04:08:45;;;;;;;38.45;10.93;;;5.80;99.90;;;;;;5053831;28;20045;-53
2022/03/28 04:11:11;;;;;;;44.17;9.52;;;5.80;99.90;;;;;;5065424;28;20045;-54
2022/03/28 04:13:37;;;;;;;31.83;9.15;;;5.90;99.90;;;;;;5065887;28;20484;-54
2022/03/28 04:16:03;;;;;;;32.78;9.63;;;5.80;99.90;;;;;;5043464;28;20053;-54
2022/03/28 04:18:29;;;;;;;32.38;10.00;;;5.80;99.90;;;;;;5068393;23;20068;-54
2022/03/28 04:20:57;;;;;;;33.88;9.65;;;5.70;99.90;;;;;;5020404;28;20467;-55
2022/03/28 04:23:25;;;;;;;43.08;10.95;;;5.90;99.90;;;;;;5036792;28;20036;-55
2022/03/28 04:25:51;;;;;;;34.60;9.15;;;5.90;99.90;;;;;;5054262;28;20131;-55
2022/03/28 04:28:16;;;;;;;34.08;10.07;;;5.90;99.90;;;;;;5054055;28;20235;-55
2022/03/28 04:30:42;;;;;;;33.83;10.07;;;5.90;99.90;;;;;;5036555;28;20607;-55
2022/03/28 04:33:09;;;;;;;41.25;10.65;;;5.90;99.90;;;;;;5053344;28;20041;-54
2022/03/28 04:35:35;;;;;;;29.67;11.98;;;5.80;99.90;;;;;;5054268;28;20126;-55
2022/03/28 04:38:04;;;;;;;41.33;11.02;;;5.80;99.90;;;;;;5036472;28;20052;-55
2022/03/28 04:40:30;;;;;;;50.80;13.77;;;5.90;99.90;;;;;;5053233;28;20378;-55
2022/03/28 04:42:55;;;;;;;43.38;12.55;;;5.90;99.90;;;;;;5036242;28;20099;-55
2022/03/28 04:45:21;;;;;;;43.70;12.98;;;5.90;99.90;;;;;;5053745;28;20081;-56
2022/03/28 04:47:46;;;;;;;52.20;14.10;;;5.90;99.90;;;;;;5053165;28;20408;-55
2022/03/28 04:50:12;;;;;;;48.58;12.07;;;5.90;99.90;;;;;;5032790;28;20056;-56
2022/03/28 04:52:37;;;;;;;35.40;13.40;;;5.90;99.90;;;;;;5036214;28;20378;-54
2022/03/28 04:55:04;;;;;;;31.73;12.95;;;5.90;99.90;;;;;;5053606;28;20124;-55
2022/03/28 04:57:30;;;;;;;31.58;11.75;;;5.90;99.90;;;;;;5046916;28;20083;-56
2022/03/28 04:59:57;;;;;;;31.42;11.80;;;6.00;99.90;;;;;;5035668;28;20033;-55
2022/03/28 05:02:22;;;;;;;34.22;12.60;;;6.00;99.90;;;;;;5046680;28;20079;-55
2022/03/28 05:04:48;;;;;;;33.63;12.77;;;6.00;99.90;;;;;;5054201;28;20071;-55
2022/03/28 05:07:26;;;;;;;40.38;12.63;;;5.90;99.90;;;;;;5052872;28;20569;-54
2022/03/28 05:09:53;;;;;;;32.15;11.70;;;5.90;99.90;;;;;;5044859;28;20037;-52
2022/03/28 05:12:20;;;;;;;33.22;12.95;;;5.90;99.90;;;;;;5042788;28;20108;-55
2022/03/28 05:14:46;;;;;;;51.58;14.20;;;5.80;99.90;;;;;;5043445;28;20090;-55
2022/03/28 05:17:12;;;;;;;33.63;13.15;;;5.80;99.90;;;;;;5043664;28;20033;-52
2022/03/28 05:19:37;;;;;;;27.88;13.70;;;5.80;99.90;;;;;;5049620;28;20044;-55
2022/03/28 05:22:03;;;;;;;33.25;12.38;;;5.80;99.90;;;;;;5043738;28;20560;-54
2022/03/28 05:24:30;;;;;;;29.38;11.05;;;5.80;99.90;;;;;;5041495;28;20032;-53
2022/03/28 05:26:55;;;;;;;32.70;11.82;;;5.90;99.90;;;;;;5046373;28;20500;-52
2022/03/28 05:29:24;;;;;;;34.58;13.07;;;5.90;99.90;;;;;;5049250;28;20048;-52
2022/03/28 05:31:49;;;;;;;26.90;13.07;;;5.90;99.90;;;;;;5052798;28;20041;-52
2022/03/28 05:34:15;;;;;;;32.85;13.05;;;5.80;99.90;;;;;;5053609;28;20402;-54
2022/03/28 05:36:42;;;;;;;39.63;14.00;;;5.80;99.90;;;;;;5018589;28;20182;-52
2022/03/28 05:39:08;;;;;;;38.17;13.30;;;5.80;99.90;;;;;;5018998;28;20045;-53
2022/03/28 05:41:34;;;;;;;31.15;13.00;;;5.70;99.90;;;;;;5051636;28;20043;-51
2022/03/28 05:44:00;;;;;;;44.00;14.95;;;5.80;99.90;;;;;;5038080;28;20053;-56
2022/03/28 05:46:25;;;;;;;31.40;14.90;;;5.80;99.90;;;;;;5041792;28;20048;-52
2022/03/28 05:48:51;;;;;;;38.30;14.40;;;5.80;99.90;;;;;;5042560;28;20060;-51
2022/03/28 05:51:16;;;;;;;44.55;14.20;;;5.80;99.90;;;;;;5040423;28;20037;-50
2022/03/28 05:53:42;;;;;;;56.85;16.15;;;5.80;99.90;;;;;;5052212;28;20099;-55
2022/03/28 05:56:08;;;;;;;47.35;14.40;;;5.90;99.90;;;;;;5052156;28;20037;-54
2022/03/28 05:58:33;;;;;;;34.55;14.00;;;5.90;99.90;;;;;;5051474;28;20051;-54
2022/03/28 06:01:00;;;;;;;31.85;13.43;;;5.90;99.90;;;;;;5052047;28;20037;-54
2022/03/28 06:03:26;;;;;;;33.72;12.68;;;5.90;99.90;;;;;;5049053;28;20044;-54
2022/03/28 06:05:52;;;;;;;33.47;12.95;;;6.00;99.90;;;;;;5046874;28;20049;-55
2022/03/28 06:08:18;;;;;;;27.27;13.75;;;6.00;99.90;;;;;;5048799;28;20051;-50
2022/03/28 06:10:43;;;;;;;42.92;12.80;;;6.00;99.90;;;;;;5045903;28;20045;-50
2022/03/28 06:13:09;;;;;;;34.65;11.02;;;6.10;99.90;;;;;;5043235;28;20034;-51
2022/03/28 06:15:37;;;;;;;25.10;11.63;;;6.10;99.90;;;;;;5041421;28;20029;-51
2022/03/28 06:18:05;;;;;;;44.67;13.98;;;6.00;99.90;;;;;;5037241;28;20134;-50
2022/03/28 06:20:34;;;;;;;33.13;14.60;;;5.90;99.90;;;;;;5037422;28;20120;-52
2022/03/28 06:23:00;;;;;;;43.47;14.77;;;5.90;99.90;;;;;;5043683;28;20039;-51
2022/03/28 06:25:26;;;;;;;53.42;14.07;;;5.90;99.90;;;;;;5040177;28;20036;-52
2022/03/28 06:27:51;;;;;;;46.83;13.63;;;5.80;99.90;;;;;;5041745;28;20163;-55
2022/03/28 06:30:17;;;;;;;70.90;14.98;;;5.80;99.90;;;;;;5036602;28;20154;-54
2022/03/28 06:32:42;;;;;;;63.88;14.30;;;5.90;99.90;;;;;;5036692;28;20247;-51
2022/03/28 06:35:09;;;;;;;48.70;14.63;;;5.90;99.90;;;;;;5037790;28;20037;-55
2022/03/28 06:37:35;;;;;;;68.93;15.45;;;5.90;99.90;;;;;;5041401;28;20044;-54
2022/03/28 06:40:03;;;;;;;49.00;16.45;;;5.80;99.90;;;;;;5040303;28;20079;-54
2022/03/28 06:42:30;;;;;;;54.90;15.75;;;5.80;99.90;;;;;;5040604;28;20064;-54
2022/03/28 06:44:56;;;;;;;55.65;17.42;;;5.80;99.90;;;;;;5041225;28;20042;-54
2022/03/28 06:47:21;;;;;;;73.78;17.23;;;5.70;99.90;;;;;;5042479;28;20037;-54
2022/03/28 06:49:47;;;;;;;41.35;15.70;;;5.70;99.90;;;;;;5038473;28;20041;-53
2022/03/28 06:52:12;;;;;;;55.42;17.48;;;5.70;99.90;;;;;;5043606;28;20084;-54
2022/03/28 06:54:38;;;;;;;38.83;16.40;;;5.80;99.90;;;;;;5038490;28;20072;-54
2022/03/28 06:57:04;;;;;;;39.10;16.60;;;5.80;99.90;;;;;;5036151;28;20087;-52
2022/03/28 06:59:29;;;;;;;34.53;15.80;;;5.80;99.90;;;;;;5038372;28;20044;-55
2022/03/28 07:01:57;;;;;;;28.88;15.00;;;5.90;99.90;;;;;;5040041;28;20043;-54
2022/03/28 07:04:23;;;;;;;35.80;14.77;;;6.00;99.90;;;;;;5023525;28;20060;-55
2022/03/28 07:06:49;;;;;;;34.30;15.90;;;5.90;99.90;;;;;;5036991;28;20068;-54
2022/03/28 07:09:15;;;;;;;39.83;17.25;;;6.00;99.90;;;;;;5026326;28;20076;-53
2022/03/28 07:11:41;;;;;;;37.97;16.83;;;5.90;99.90;;;;;;5028684;28;20053;-54
2022/03/28 07:14:07;;;;;;;30.77;15.98;;;5.90;99.90;;;;;;5055156;28;20033;-50
2022/03/28 07:16:33;;;;;;;40.58;18.45;;;6.00;99.90;;;;;;5052095;28;20488;-53
2022/03/28 07:18:59;;;;;;;39.03;17.70;;;6.00;99.90;;;;;;5031638;28;20125;-52
2022/03/28 07:21:25;;;;;;;38.38;18.48;;;6.00;99.90;;;;;;5047457;28;20490;-54
2022/03/28 07:23:52;;;;;;;38.15;18.17;;;6.00;99.90;;;;;;5041849;28;20041;-55
2022/03/28 07:26:19;;;;;;;38.92;17.70;;;6.00;99.90;;;;;;5043803;28;20072;-51
2022/03/28 07:28:44;;;;;;;35.15;15.95;;;6.00;99.90;;;;;;5046356;28;20095;-52
2022/03/28 07:31:10;;;;;;;36.90;17.10;;;6.10;99.90;;;;;;5042856;28;20053;-54
2022/03/28 07:33:38;;;;;;;34.35;16.80;;;6.10;99.90;;;;;;5044636;28;20037;-53
2022/03/28 07:36:04;;;;;;;39.22;18.05;;;6.00;99.90;;;;;;5053399;28;20401;-54
2022/03/28 07:38:30;;;;;;;35.05;16.77;;;6.00;99.90;;;;;;5046657;28;20392;-50
2022/03/28 07:40:56;;;;;;;35.83;15.50;;;6.00;99.90;;;;;;5049319;28;20052;-54
2022/03/28 07:43:22;;;;;;;38.05;17.00;;;6.10;99.90;;;;;;5051388;28;20400;-55
2022/03/28 07:45:48;;;;;;;33.17;15.05;;;6.00;99.90;;;;;;5054744;28;20033;-54
2022/03/28 07:48:14;;;;;;;26.02;13.82;;;6.10;99.90;;;;;;5051326;28;20503;-55
2022/03/28 07:50:40;;;;;;;31.70;15.15;;;6.20;99.90;;;;;;5049973;28;21276;-54
2022/03/28 07:53:07;;;;;;;31.75;14.63;;;6.20;99.90;;;;;;5034346;28;20045;-54
2022/03/28 07:55:33;;;;;;;31.17;15.73;;;6.10;99.90;;;;;;5046182;28;20466;-54
2022/03/28 07:58:02;;;;;;;31.17;16.25;;;6.10;99.90;;;;;;5036194;28;20049;-54
2022/03/28 08:00:29;;;;;;;35.50;15.35;;;6.10;99.90;;;;;;5054440;28;20094;-54
2022/03/28 08:02:55;;;;;;;29.60;15.07;;;6.10;99.90;;;;;;5054175;28;20048;-54
2022/03/28 08:05:21;;;;;;;33.60;14.90;;;6.10;99.90;;;;;;5039478;28;20046;-54
2022/03/28 08:07:48;;;;;;;29.10;14.77;;;6.10;99.90;;;;;;5033949;28;20041;-54
2022/03/28 08:10:14;;;;;;;33.17;16.17;;;6.20;99.90;;;;;;5034232;28;20072;-55
2022/03/28 08:12:42;;;;;;;30.60;16.65;;;6.10;99.90;;;;;;5016818;28;20039;-55
2022/03/28 08:15:09;;;;;;;29.17;13.88;;;6.10;99.90;;;;;;5034337;28;20068;-54
2022/03/28 08:17:36;;;;;;;27.65;14.40;;;6.10;99.90;;;;;;5033727;28;20386;-55
2022/03/28 08:20:03;;;;;;;28.40;14.00;;;6.20;99.90;;;;;;5025675;28;20051;-54
2022/03/28 08:22:29;;;;;;;29.40;14.57;;;6.10;99.90;;;;;;5052816;28;20056;-55
2022/03/28 08:24:55;;;;;;;27.10;14.57;;;6.30;99.90;;;;;;5036337;28;20037;-54
2022/03/28 08:27:20;;;;;;;30.98;15.07;;;6.30;99.90;;;;;;5053704;28;20116;-55
2022/03/28 08:29:46;;;;;;;32.03;14.65;;;6.30;99.90;;;;;;5053907;28;20036;-55
2022/03/28 08:32:11;;;;;;;28.30;14.30;;;6.30;99.90;;;;;;5053751;28;20052;-54
2022/03/28 08:34:37;;;;;;;29.30;15.05;;;6.30;99.90;;;;;;5053188;28;20025;-55
2022/03/28 08:37:03;;;;;;;27.25;14.15;;;6.40;99.90;;;;;;5043692;28;20124;-54
2022/03/28 08:39:28;;;;;;;28.25;13.65;;;6.40;99.90;;;;;;5051119;28;20047;-54
2022/03/28 08:41:55;;;;;;;29.38;14.43;;;6.40;99.90;;;;;;5053547;28;20059;-54
2022/03/28 08:44:20;;;;;;;28.70;14.27;;;6.40;99.90;;;;;;5045110;28;20083;-54
2022/03/28 08:46:48;;;;;;;27.67;14.25;;;6.50;99.90;;;;;;5053319;28;20044;-54
2022/03/28 08:49:18;;;;;;;27.13;14.55;;;6.40;99.90;;;;;;5053334;28;20037;-54
2022/03/28 08:51:43;;;;;;;26.58;14.13;;;6.50;99.90;;;;;;5032283;28;20052;-55
2022/03/28 08:54:09;;;;;;;26.40;14.00;;;6.60;99.90;;;;;;5048496;28;20393;-54
2022/03/28 08:56:34;;;;;;;28.50;13.57;;;6.60;99.90;;;;;;5053136;28;20459;-54
2022/03/28 08:59:00;;;;;;;26.83;12.43;;;6.60;99.90;;;;;;5041093;28;20490;-55
2022/03/28 09:01:26;;;;;;;26.15;13.48;;;6.80;99.90;;;;;;5050046;28;20045;-55
2022/03/28 09:03:52;;;;;;;23.80;12.35;;;6.70;99.90;;;;;;5053114;28;20080;-55
2022/03/28 09:06:36;;;;;;;26.80;13.50;;;6.80;99.90;;;;;;5052819;28;20073;-54
2022/03/28 09:09:12;;;;;;;26.70;12.10;;;6.80;99.90;;;;;;5041494;28;20037;-54
2022/03/28 09:11:38;;;;;;;25.05;12.70;;;6.80;99.90;;;;;;5033089;28;20050;-54
2022/03/28 09:14:04;;;;;;;25.13;11.00;;;6.70;99.90;;;;;;5033154;28;20037;-55
2022/03/28 09:16:33;;;;;;;23.02;11.63;;;6.80;99.90;;;;;;5052433;28;20040;-54
2022/03/28 09:18:59;;;;;;;21.98;11.15;;;6.80;99.90;;;;;;5052793;28;20064;-54
2022/03/28 09:21:25;;;;;;;21.80;11.13;;;6.80;99.90;;;;;;5052990;28;20488;-54
2022/03/28 09:23:52;;;;;;;22.52;11.00;;;6.80;99.90;;;;;;5052948;28;20037;-54
2022/03/28 09:26:20;;;;;;;19.50;10.75;;;6.80;99.90;;;;;;5052606;28;20045;-52
2022/03/28 09:29:05;;;;;;;17.65;10.25;;;6.90;99.90;;;;;;5052637;28;20041;-54
2022/03/28 09:31:32;;;;;;;20.80;11.07;;;6.90;99.90;;;;;;5036910;28;20044;-54
2022/03/28 09:34:08;;;;;;;22.27;11.68;;;6.90;99.90;;;;;;5044020;28;20071;-54
2022/03/28 09:36:50;;;;;;;22.67;12.20;;;7.00;99.90;;;;;;5052286;28;20493;-54
2022/03/28 09:39:18;;;;;;;21.25;11.70;;;6.90;99.90;;;;;;5052500;28;20055;-54
2022/03/28 09:42:09;;;;;;;24.00;11.70;;;6.90;99.90;;;;;;5018345;28;20063;-54
2022/03/28 09:44:49;;;;;;;22.67;12.45;;;7.00;99.90;;;;;;5047123;28;20053;-54
2022/03/28 09:47:18;;;;;;;23.50;12.57;;;7.00;99.90;;;;;;5052247;28;20033;-54
2022/03/28 09:49:46;;;;;;;26.67;12.68;;;7.00;99.90;;;;;;5052179;28;20493;-55
2022/03/28 09:52:17;;;;;;;21.73;12.10;;;7.00;99.90;;;;;;5045707;28;20038;-55
2022/03/28 09:54:51;;;;;;;23.00;12.33;;;7.10;99.90;;;;;;5017762;28;20071;-55
2022/03/28 09:57:23;;;;;;;22.55;12.32;;;7.10;99.90;;;;;;5034381;28;20275;-54
2022/03/28 09:59:49;;;;;;;24.17;12.27;;;7.20;99.90;;;;;;5051775;28;20041;-54
2022/03/28 10:02:23;;;;;;;22.48;12.63;;;7.20;99.90;;;;;;5052054;28;20041;-55
2022/03/28 10:04:52;;;;;;;24.73;13.43;;;7.30;99.90;;;;;;5052300;28;20393;-55
2022/03/28 10:07:19;;;;;;;25.92;12.10;;;7.40;99.90;;;;;;5051949;28;20037;-54
2022/03/28 10:09:44;;;;;;;25.05;12.77;;;7.50;99.90;;;;;;5052019;28;20063;-55
2022/03/28 10:12:10;;;;;;;22.02;11.95;;;7.50;99.90;;;;;;5051692;28;20033;-55
2022/03/28 10:14:37;;;;;;;21.90;12.10;;;7.50;99.90;;;;;;5052013;28;20402;-55
2022/03/28 10:17:04;;;;;;;22.45;12.02;;;7.50;99.90;;;;;;5051616;28;20048;-55
2022/03/28 10:19:36;;;;;;;22.27;11.50;;;7.50;99.90;;;;;;5053466;22;20069;-54
2022/03/28 10:22:06;;;;;;;20.60;11.25;;;7.50;99.90;;;;;;5023085;28;20038;-56
2022/03/28 10:24:34;;;;;;;22.55;12.13;;;7.50;99.90;;;;;;5030021;28;20072;-55
2022/03/28 10:27:02;;;;;;;23.73;12.70;;;7.50;99.90;;;;;;5031300;28;20049;-56
2022/03/28 10:29:39;;;;;;;24.50;12.05;;;7.60;99.90;;;;;;5031822;28;20083;-56
2022/03/28 10:32:19;;;;;;;22.63;12.18;;;7.70;99.90;;;;;;5031876;28;20378;-53
2022/03/28 10:34:52;;;;;;;25.65;13.40;;;7.80;99.90;;;;;;5029723;28;20072;-55
2022/03/28 10:37:39;;;;;;;24.10;12.25;;;7.90;99.90;;;;;;5027748;28;20034;-54
2022/03/28 10:40:28;;;;;;;25.88;13.70;;;7.90;99.90;;;;;;5016952;28;20041;-54
2022/03/28 10:43:13;;;;;;;24.50;12.20;;;7.90;99.90;;;;;;5027113;28;20048;-55
2022/03/28 10:45:55;;;;;;;21.50;11.52;;;8.00;99.90;;;;;;5021869;28;20092;-52
2022/03/28 10:48:38;;;;;;;23.38;12.52;;;8.00;99.90;;;;;;5006616;28;20041;-53
2022/03/28 10:51:07;;;;;;;;;;;8.00;99.90;;;;;;5018751;28;20057;-57
2022/03/28 10:53:41;;;;;;;24.00;11.52;;;8.00;99.90;;;;;;5019906;28;19916;-57
2022/03/28 10:56:23;;;;;;;19.20;10.15;;;8.00;99.90;;;;;;5022349;28;20116;-57
2022/03/28 10:58:52;;;;;;;23.45;11.55;;;8.10;99.90;;;;;;5027685;28;20103;-57
2022/03/28 11:01:18;;;;;;;26.45;11.80;;;8.10;99.90;;;;;;5018734;28;20044;-57
2022/03/28 11:03:44;;;;;;;21.80;11.40;;;8.10;99.90;;;;;;5020782;28;20041;-56
2022/03/28 11:06:11;;;;;;;23.88;12.80;;;8.00;99.90;;;;;;5013414;28;20045;-53
2022/03/28 11:08:46;;;;;;;22.58;11.75;;;8.00;99.90;;;;;;5025122;28;20038;-54
2022/03/28 11:11:21;;;;;;;25.42;12.30;;;8.00;99.90;;;;;;5027124;28;20532;-55
2022/03/28 11:14:09;;;;;;;22.27;12.45;;;8.10;99.90;;;;;;5009232;28;20041;-55
2022/03/28 11:16:51;;;;;;;25.13;12.55;;;8.20;99.90;;;;;;5027536;28;20057;-52
2022/03/28 11:19:25;;;;;;;25.08;12.40;;;8.20;99.90;;;;;;5026656;28;20397;-55
2022/03/28 11:22:03;;;;;;;23.10;11.75;;;8.30;99.90;;;;;;5009880;28;20057;-55
2022/03/28 11:24:47;;;;;;;23.33;11.15;;;8.40;99.90;;;;;;5025003;28;20088;-55
2022/03/28 11:27:15;;;;;;;21.08;11.70;;;8.50;99.90;;;;;;5013862;28;20038;-55
2022/03/28 11:29:44;;;;;;;22.35;12.25;;;8.60;99.90;;;;;;5022980;28;20041;-55
2022/03/28 11:32:18;;;;;;;22.67;11.63;;;8.50;99.90;;;;;;5018415;28;20645;-55
2022/03/28 11:34:54;;;;;;;19.38;11.23;;;8.60;99.90;;;;;;5011446;28;20038;-55
2022/03/28 11:37:25;;;;;;;24.90;11.70;;;8.60;99.90;;;;;;5016051;28;20034;-55
2022/03/28 11:39:53;;;;;;;23.65;11.27;;;8.70;99.90;;;;;;5026322;28;20077;-56
2022/03/28 11:42:23;;;;;;;20.70;11.18;;;8.80;99.90;;;;;;5030990;28;20049;-56
2022/03/28 11:44:50;;;;;;;24.00;11.90;;;8.90;99.90;;;;;;5031299;28;20037;-55
2022/03/28 11:47:17;;;;;;;20.08;10.48;;;9.00;99.90;;;;;;5029762;28;20045;-56
2022/03/28 11:50:11;;;;;;;21.73;10.32;;;9.20;99.90;;;;;;5031112;28;20418;-56
2022/03/28 11:52:37;;;;;;;18.13;10.57;;;9.30;99.90;;;;;;5017911;28;20119;-53
2022/03/28 11:55:18;;;;;;;17.60;10.63;;;9.50;99.90;;;;;;5029573;28;20046;-54
2022/03/28 12:00:48;;;;;;;21.70;12.07;;;9.70;99.90;;;;;;4990618;28;20050;-56
2022/03/28 12:03:15;;;;;;;19.58;10.23;;;9.60;99.90;;;;;;5034229;28;20045;-56
2022/03/28 12:05:42;;;;;;;16.85;10.88;;;9.70;99.90;;;;;;5034547;28;20048;-52
2022/03/28 12:08:28;;;;;;;18.13;9.48;;;9.70;99.90;;;;;;5034206;28;20047;-54
2022/03/28 12:10:54;;;;;;;17.15;9.25;;;9.80;99.90;;;;;;5033977;28;20531;-52
2022/03/28 12:13:21;;;;;;;16.35;9.38;;;9.80;99.90;;;;;;5016684;28;20484;-56
2022/03/28 12:15:49;;;;;;;16.27;9.73;;;9.80;99.90;;;;;;5034193;28;20515;-56
2022/03/28 12:18:16;;;;;;;16.27;10.05;;;9.90;99.90;;;;;;5033727;28;20116;-56
2022/03/28 12:20:45;;;;;;;16.70;10.35;;;10.00;99.90;;;;;;5034461;28;20100;-51
2022/03/28 12:23:13;;;;;;;16.70;10.00;;;10.10;99.90;;;;;;5034909;28;20092;-55
2022/03/28 12:25:41;;;;;;;14.27;8.98;;;10.30;99.90;;;;;;5033815;28;20054;-54
2022/03/28 12:28:12;;;;;;;15.63;8.95;;;10.40;99.90;;;;;;5033495;28;20052;-53
2022/03/28 12:30:57;;;;;;;15.43;9.73;;;10.50;99.90;;;;;;5033978;28;20102;-52
2022/03/28 12:33:29;;;;;;;18.63;9.82;;;10.60;99.90;;;;;;5034038;28;20040;-56
2022/03/28 12:36:19;;;;;;;15.40;9.60;;;10.50;99.90;;;;;;5033806;28;20493;-55
2022/03/28 12:38:56;;;;;;;17.75;10.05;;;10.60;99.90;;;;;;5033413;28;20041;-56
2022/03/28 12:41:22;;;;;;;14.32;9.50;;;10.70;99.90;;;;;;5033897;28;20116;-56
2022/03/28 12:43:49;;;;;;;17.08;9.25;;;10.80;99.90;;;;;;5033683;28;20056;-54
2022/03/28 12:46:18;;;;;;;17.52;9.27;;;10.90;99.90;;;;;;5033529;28;20048;-56
2022/03/28 12:48:51;;;;;;;16.38;10.05;;;11.00;99.90;;;;;;5033572;28;20049;-56